Plain, Washington
Current Conditions -  °F | °C
As of 8:55 PM on Thursday 27 Nov 2014 (Local Time) from KEAT Reporting Station
Scattered Clouds Scattered Clouds  
Wind Chill: 50°   Ceiling: Unl
Heat Index: 50°   Visibility: NA
Dew Point: 39°   Wind: 9mph
Humidity: 66%   Direction: 80°E
Pressure: 29.67"   Gusts: NA
Location:  47.7866°N, 120.856°W
Report Text: KEAT 280455Z AUTO 08008KT SCT065 10/04 A2967 RMK AO2 SLP051 T01000039
Loading
Personal Weather Stations






























Interactive Weather Map New forecast layout! Learn more

10-Day Weather Forecast

Advertisements
Track Severe Weather on mobile